createdAt,value
2019-03-11T00:00:50.241Z,80.3
2019-03-11T00:02:50.328Z,80.6
2019-03-11T00:04:50.665Z,80.9
2019-03-11T00:06:50.872Z,80.9
2019-03-11T00:08:50.036Z,81.3
2019-03-11T00:10:50.211Z,81.4
2019-03-11T00:12:50.346Z,81.3
2019-03-11T00:14:50.407Z,81.9
2019-03-11T00:16:50.718Z,82.3
2019-03-11T00:18:50.863Z,82.1
2019-03-11T00:20:49.954Z,82.1
2019-03-11T00:22:50.074Z,82.6
2019-03-11T00:24:50.174Z,82.5
2019-03-11T00:26:50.293Z,82.8
2019-03-11T00:28:50.458Z,83.0
2019-03-11T00:30:50.598Z,83.2
2019-03-11T00:32:50.677Z,83.8
2019-03-11T00:34:50.146Z,84.4
2019-03-11T00:36:50.345Z,84.5
2019-03-11T00:38:50.414Z,84.9
2019-03-11T00:40:50.463Z,84.7
2019-03-11T00:42:50.614Z,85.0
2019-03-11T00:44:50.743Z,85.6
2019-03-11T00:46:50.944Z,91.7
2019-03-11T00:48:50.106Z,93.6
2019-03-11T00:50:50.270Z,94.4
2019-03-11T00:52:50.361Z,98.2
2019-03-11T00:54:50.409Z,99.2
2019-03-11T00:56:50.624Z,100.0
2019-03-11T00:58:50.735Z,100.0
2019-03-11T01:00:50.861Z,100.0
2019-03-11T01:02:49.994Z,100.0
2019-03-11T01:04:50.277Z,100.0
2019-03-11T01:06:50.408Z,100.0
2019-03-11T01:08:50.574Z,100.0
2019-03-11T01:10:50.724Z,100.0
2019-03-11T01:12:50.796Z,100.0
2019-03-11T01:14:50.898Z,100.0
2019-03-11T01:16:50.050Z,100.0
2019-03-11T01:18:50.173Z,100.0
2019-03-11T01:20:50.255Z,100.0
2019-03-11T01:22:50.316Z,100.0
2019-03-11T01:24:50.377Z,100.0
2019-03-11T01:26:50.599Z,100.0
2019-03-11T01:28:50.710Z,100.0
2019-03-11T01:30:50.755Z,100.0
2019-03-11T01:32:50.849Z,100.0
2019-03-11T01:34:50.132Z,100.0
2019-03-11T01:36:50.368Z,100.0
2019-03-11T01:38:50.496Z,100.0
2019-03-11T01:40:50.625Z,100.0
2019-03-11T01:42:52.552Z,100.0
2019-03-11T01:44:50.614Z,100.0
2019-03-11T01:46:50.944Z,100.0
2019-03-11T01:48:50.080Z,100.0
2019-03-11T01:50:50.155Z,100.0
2019-03-11T01:52:50.363Z,100.0
2019-03-11T01:54:50.422Z,100.0
2019-03-11T01:56:50.609Z,100.0
2019-03-11T01:58:50.738Z,100.0
2019-03-11T02:00:50.896Z,100.0
2019-03-11T02:02:50.165Z,100.0
2019-03-11T02:04:50.614Z,100.0
2019-03-11T02:06:50.777Z,100.0
2019-03-11T02:08:50.872Z,100.0
2019-03-11T02:10:50.007Z,100.0
2019-03-11T02:12:50.152Z,100.0
2019-03-11T02:14:50.283Z,100.0
2019-03-11T02:16:50.471Z,100.0
2019-03-11T02:18:50.672Z,100.0
2019-03-11T02:20:50.844Z,100.0
2019-03-11T02:22:50.071Z,100.0
2019-03-11T02:24:50.259Z,100.0
2019-03-11T02:26:50.685Z,100.0
2019-03-11T02:28:50.888Z,100.0
2019-03-11T02:30:50.067Z,100.0
2019-03-11T02:32:50.281Z,100.0
2019-03-11T02:34:50.803Z,100.0
2019-03-11T02:36:50.043Z,100.0
2019-03-11T02:38:50.215Z,97.9
2019-03-11T02:40:50.365Z,97.9
2019-03-11T02:42:50.549Z,97.4
2019-03-11T02:44:50.724Z,96.6
2019-03-11T02:46:49.979Z,95.1
2019-03-11T02:48:50.109Z,95.1
2019-03-11T02:50:50.229Z,85
2019-03-11T02:52:50.385Z,85
2019-03-11T02:54:50.542Z,85
2019-03-11T02:56:50.896Z,85
2019-03-11T02:58:50.214Z,90.6
2019-03-11T03:00:50.583Z,85
2019-03-11T03:02:50.801Z,85
2019-03-11T03:04:50.205Z,85
2019-03-11T03:06:50.364Z,85
2019-03-11T03:08:50.311Z,84
2019-03-11T03:10:50.518Z,84
2019-03-11T03:12:50.740Z,85
2019-03-11T03:14:50.930Z,84
2019-03-11T03:16:50.248Z,84
2019-03-11T03:18:50.359Z,84
2019-03-11T03:20:50.521Z,84
2019-03-11T03:22:50.693Z,84
2019-03-11T03:24:50.847Z,84
2019-03-11T03:26:50.087Z,83
2019-03-11T03:28:50.235Z,82.7
2019-03-11T03:30:50.550Z,82.3
2019-03-11T03:32:50.917Z,80.4
2019-03-11T03:34:50.285Z,80.4
2019-03-11T03:36:50.522Z,81
2019-03-11T03:38:50.664Z,82
2019-03-11T03:40:50.758Z,78.9
2019-03-11T03:42:51.859Z,81
2019-03-11T03:44:50.104Z,78.3
2019-03-11T03:46:50.437Z,80
2019-03-11T03:48:52.116Z,78.5
2019-03-11T03:50:50.358Z,77.6
2019-03-11T03:52:50.579Z,78.3
2019-03-11T03:54:50.702Z,78.2
2019-03-11T03:56:55.021Z,77.5
2019-03-11T03:58:50.263Z,78.8
2019-03-11T04:00:50.500Z,77.8
2019-03-11T04:02:50.682Z,77.8
2019-03-11T04:04:50.134Z,79.5
2019-03-11T04:06:50.530Z,79.8
2019-03-11T04:08:50.638Z,80.3
2019-03-11T04:10:50.785Z,80.7
2019-03-11T04:12:50.950Z,81.7
2019-03-11T04:14:50.108Z,81.3
2019-03-11T04:16:50.333Z,81.3
2019-03-11T04:18:50.462Z,80.9
2019-03-11T04:20:50.621Z,81.0
2019-03-11T04:22:50.758Z,81.9
2019-03-11T04:24:50.892Z,80.7
2019-03-11T04:26:50.148Z,80.4
2019-03-11T04:28:50.301Z,80.0
2019-03-11T04:30:50.436Z,81.2
2019-03-11T04:32:50.546Z,78.7
2019-03-11T04:34:50.907Z,79.7
2019-03-11T04:36:50.207Z,78.8
2019-03-11T04:38:50.322Z,78.4
2019-03-11T04:40:50.419Z,78.7
2019-03-11T04:42:50.496Z,80.6
2019-03-11T04:44:50.567Z,78.5
2019-03-11T04:46:50.822Z,78.2
2019-03-11T04:48:50.895Z,78.9
2019-03-11T04:50:49.971Z,78.7
2019-03-11T04:52:50.209Z,78.6
2019-03-11T04:54:50.278Z,79.4
2019-03-11T04:56:50.470Z,78.1
2019-03-11T04:58:50.591Z,78.0
2019-03-11T05:00:50.674Z,78.2
2019-03-11T05:02:50.829Z,77.8
2019-03-11T05:04:50.114Z,77.8
2019-03-11T05:06:50.271Z,78.7
2019-03-11T05:08:50.458Z,79.0
2019-03-11T05:10:50.554Z,81.4
2019-03-11T05:12:50.682Z,81.1
2019-03-11T05:14:50.762Z,79.3
2019-03-11T05:16:49.959Z,79.8
2019-03-11T05:18:50.096Z,78.2
2019-03-11T05:20:50.196Z,78.2
2019-03-11T05:22:50.271Z,78.4
2019-03-11T05:24:50.398Z,78.7
2019-03-11T05:26:50.007Z,80.5
2019-03-11T05:28:50.170Z,81.2
2019-03-11T05:30:50.304Z,81.4
2019-03-11T05:32:50.416Z,82.8
2019-03-11T05:34:50.827Z,82.9
2019-03-11T05:36:50.004Z,83.1
2019-03-11T05:38:50.154Z,85.3
2019-03-11T05:40:50.528Z,85.3
2019-03-11T05:42:50.670Z,85.3
2019-03-11T05:44:50.742Z,86.3
2019-03-11T05:46:50.939Z,86.3
2019-03-11T05:48:50.064Z,87.6
2019-03-11T05:50:50.212Z,87.9
2019-03-11T05:52:50.306Z,87.8
2019-03-11T05:54:50.438Z,87.4
2019-03-11T05:56:50.680Z,88.6
2019-03-11T05:58:50.777Z,86.9
2019-03-11T06:00:50.884Z,87.7
2019-03-11T06:02:49.995Z,87.9
2019-03-11T06:04:50.405Z,86.9
2019-03-11T06:06:50.631Z,86.0
2019-03-11T06:08:50.754Z,87.2
2019-03-11T06:10:50.851Z,86.9
2019-03-11T06:12:50.002Z,86.2
2019-03-11T06:14:50.133Z,86.1
2019-03-11T06:16:50.329Z,87.5
2019-03-11T06:18:50.453Z,86.2
2019-03-11T06:20:50.523Z,84.9
2019-03-11T06:22:50.600Z,84.6
2019-03-11T06:24:50.763Z,83.9
2019-03-11T06:26:49.959Z,84.4
2019-03-11T06:28:50.098Z,84.7
2019-03-11T06:30:50.184Z,84.9
2019-03-11T06:32:50.294Z,84.9
2019-03-11T06:34:50.636Z,85.7
2019-03-11T06:36:50.473Z,85.7
2019-03-11T06:38:50.592Z,86.2
2019-03-11T06:40:50.687Z,86.9
2019-03-11T06:42:50.767Z,87.4
2019-03-11T06:44:50.858Z,87.2
2019-03-11T06:46:49.995Z,86.9
2019-03-11T06:48:50.111Z,87.0
2019-03-11T06:50:50.246Z,87.5
2019-03-11T06:52:50.349Z,87.6
2019-03-11T06:54:50.497Z,87.9
2019-03-11T06:56:50.718Z,88.3
2019-03-11T06:58:50.870Z,87.9
2019-03-11T07:00:51.012Z,88.6
2019-03-11T07:02:50.167Z,87.4
2019-03-11T07:04:50.602Z,87.8
2019-03-11T07:06:50.892Z,88.0
2019-03-11T07:08:49.974Z,87.5
2019-03-11T07:10:50.127Z,86.9
2019-03-11T07:12:50.311Z,86.3
2019-03-11T07:14:50.361Z,86.3
2019-03-11T07:16:50.509Z,85.9
2019-03-11T07:18:50.642Z,83.9
2019-03-11T07:20:50.853Z,84.8
2019-03-11T07:22:49.963Z,84.9
2019-03-11T07:24:50.076Z,85.4
2019-03-11T07:26:50.298Z,85.5
2019-03-11T07:28:50.417Z,86.0
2019-03-11T07:30:50.516Z,86.4
2019-03-11T07:32:50.635Z,85.5
2019-03-11T07:34:49.954Z,86.9
2019-03-11T07:36:50.143Z,86.8
2019-03-11T07:38:50.291Z,86.7
2019-03-11T07:40:50.392Z,85.6
2019-03-11T07:42:50.540Z,85.6
2019-03-11T07:44:50.672Z,84.9
2019-03-11T07:46:49.957Z,84.8
2019-03-11T07:48:50.183Z,84.4
2019-03-11T07:50:50.347Z,84.7
2019-03-11T07:52:51.180Z,84.1
2019-03-11T07:54:50.285Z,85.3
2019-03-11T07:56:50.424Z,83.9
2019-03-11T07:58:50.536Z,84.6
2019-03-11T08:00:54.884Z,84.2
2019-03-11T08:02:50.027Z,84.9
2019-03-11T08:04:50.610Z,85.5
2019-03-11T08:06:50.803Z,85.5
2019-03-11T08:08:50.861Z,83.7
2019-03-11T08:10:49.996Z,84.3
2019-03-11T08:12:50.218Z,84.0
2019-03-11T08:14:50.284Z,83.5
2019-03-11T08:16:50.410Z,83.8
2019-03-11T08:18:50.660Z,84.7
2019-03-11T08:20:50.815Z,85.2
2019-03-11T08:22:50.912Z,85.5
2019-03-11T08:24:50.045Z,85.1
2019-03-11T08:26:50.270Z,84.2
2019-03-11T08:28:50.470Z,84.0
2019-03-11T08:30:50.639Z,83.0
2019-03-11T08:32:50.733Z,82.9
2019-03-11T08:34:50.177Z,82.7
2019-03-11T08:36:50.387Z,81.7
2019-03-11T08:38:50.567Z,81.6
2019-03-11T08:40:50.638Z,80.9
2019-03-11T08:42:50.733Z,80.9
2019-03-11T08:44:50.881Z,80.0
2019-03-11T08:46:50.227Z,78.5
2019-03-11T08:48:50.330Z,79.2
2019-03-11T08:50:50.470Z,78.1
2019-03-11T08:52:50.616Z,78.4
2019-03-11T08:54:50.697Z,78.5
2019-03-11T08:56:50.918Z,78.8
2019-03-11T08:58:50.031Z,79.0
2019-03-11T09:00:50.131Z,79.5
2019-03-11T09:02:50.267Z,79.5
2019-03-11T09:04:50.757Z,80.0
2019-03-11T09:06:50.908Z,78.9
2019-03-11T09:08:49.984Z,79.7
2019-03-11T09:10:50.120Z,79.0
2019-03-11T09:12:50.382Z,78.6
2019-03-11T09:14:50.503Z,78.8
2019-03-11T09:16:50.657Z,78.9
2019-03-11T09:18:50.712Z,77.6
2019-03-11T09:20:50.823Z,78.0
2019-03-11T09:22:50.895Z,77.8
2019-03-11T09:24:50.079Z,77.1
2019-03-11T09:26:50.316Z,77.3
2019-03-11T09:28:50.485Z,76.5
2019-03-11T09:30:50.684Z,75.6
2019-03-11T09:32:50.827Z,73.7
2019-03-11T09:34:50.225Z,70
2019-03-11T09:36:50.405Z,70
2019-03-11T09:38:50.510Z,69
2019-03-11T09:40:50.593Z,69
2019-03-11T09:42:50.653Z,69
2019-03-11T09:44:50.748Z,69.9
2019-03-11T09:46:50.931Z,69.7
2019-03-11T09:48:50.018Z,68.6
2019-03-11T09:50:50.107Z,67.8
2019-03-11T09:52:50.264Z,67.5
2019-03-11T09:54:50.320Z,66.4
2019-03-11T09:56:50.535Z,66.4
2019-03-11T09:58:50.740Z,66.8
2019-03-11T10:00:50.883Z,66.9
2019-03-11T10:02:54.177Z,64.4
2019-03-11T10:04:50.706Z,64.5
2019-03-11T10:06:50.021Z,65.2
2019-03-11T10:08:50.187Z,64.1
2019-03-11T10:10:50.346Z,63.2
2019-03-11T10:12:50.431Z,63.2
2019-03-11T10:14:50.538Z,62.9
2019-03-11T10:16:50.704Z,62.4
2019-03-11T10:18:51.027Z,62.2
2019-03-11T10:20:50.160Z,61.4
2019-03-11T10:22:50.234Z,61.6
2019-03-11T10:24:50.393Z,62.9
2019-03-11T10:26:50.600Z,62.7
2019-03-11T10:28:50.752Z,62.4
2019-03-11T10:30:50.855Z,63.4
2019-03-11T10:32:49.990Z,65.4
2019-03-11T10:34:50.448Z,66.2
2019-03-11T10:36:50.716Z,67.1
2019-03-11T10:38:50.918Z,66.9
2019-03-11T10:40:50.052Z,65.7
2019-03-11T10:42:50.220Z,64.8
2019-03-11T10:44:50.319Z,65.5
2019-03-11T10:46:50.567Z,65.1
2019-03-11T10:48:50.637Z,63.8
2019-03-11T10:50:51.260Z,63.6
2019-03-11T10:52:50.362Z,63.6
2019-03-11T10:54:50.404Z,63.8
2019-03-11T10:56:50.620Z,67.0
2019-03-11T10:58:50.792Z,67.5
2019-03-11T11:00:50.936Z,66.1
2019-03-11T11:02:50.109Z,63.6
2019-03-11T11:04:50.521Z,62.9
2019-03-11T11:06:50.723Z,63.9
2019-03-11T11:08:50.802Z,64.5
2019-03-11T11:10:50.916Z,63.5
2019-03-11T11:12:50.011Z,62.1
2019-03-11T11:14:50.087Z,61.7
2019-03-11T11:16:50.400Z,58.1
2019-03-11T11:18:50.496Z,57.4
2019-03-11T11:20:50.614Z,54.6
2019-03-11T11:22:50.763Z,55.6
2019-03-11T11:24:50.003Z,54.7
2019-03-11T11:26:50.189Z,53.6
2019-03-11T11:28:50.280Z,54.0
2019-03-11T11:30:50.355Z,54.0
2019-03-11T11:32:50.566Z,53.7
2019-03-11T11:34:50.841Z,55.5
2019-03-11T11:36:50.099Z,56.7
2019-03-11T11:38:50.296Z,64.0
2019-03-11T11:40:50.341Z,69.7
2019-03-11T11:42:50.480Z,68.3
2019-03-11T11:44:50.597Z,68.9
2019-03-11T11:46:50.747Z,64.9
2019-03-11T11:48:50.851Z,64.3
2019-03-11T11:50:50.926Z,65.9
2019-03-11T11:52:49.994Z,64.9
2019-03-11T11:54:50.063Z,66.2
2019-03-11T11:56:50.370Z,66.9
2019-03-11T11:58:50.448Z,65.1
2019-03-11T12:00:50.538Z,64.0
2019-03-11T12:02:50.643Z,61
2019-03-11T12:04:49.925Z,61
2019-03-11T12:06:50.139Z,60
2019-03-11T12:08:50.240Z,60
2019-03-11T12:10:50.271Z,60
2019-03-11T12:12:50.433Z,60
2019-03-11T12:14:50.509Z,59
2019-03-11T12:16:50.604Z,59
2019-03-11T12:18:50.658Z,59
2019-03-11T12:20:50.720Z,59
2019-03-11T12:22:50.730Z,59
2019-03-11T12:24:50.896Z,57
2019-03-11T12:26:50.249Z,58
2019-03-11T12:28:50.622Z,58
2019-03-11T12:30:50.741Z,57
2019-03-11T12:32:50.845Z,56
2019-03-11T12:34:50.149Z,56
2019-03-11T12:36:50.308Z,56
2019-03-11T12:38:50.415Z,63.9
2019-03-11T12:40:50.483Z,71.3
2019-03-11T12:42:50.587Z,72.5
2019-03-11T12:44:50.752Z,71.6
2019-03-11T12:46:50.958Z,67.7
2019-03-11T12:48:50.086Z,64
2019-03-11T12:50:50.150Z,64
2019-03-11T12:52:50.430Z,65
2019-03-11T12:54:50.537Z,66
2019-03-11T12:56:50.671Z,66
2019-03-11T12:58:50.756Z,64
2019-03-11T13:00:50.945Z,65
2019-03-11T13:02:50.097Z,63
2019-03-11T13:04:50.399Z,63
2019-03-11T13:06:50.570Z,63
2019-03-11T13:08:50.669Z,60
2019-03-11T13:10:50.786Z,58.9
2019-03-11T13:12:50.913Z,59.6
2019-03-11T13:14:49.946Z,63.5
2019-03-11T13:16:50.240Z,65.1
2019-03-11T13:18:50.307Z,66.6
2019-03-11T13:20:50.400Z,65.7
2019-03-11T13:22:50.446Z,62
2019-03-11T13:24:50.497Z,62
2019-03-11T13:26:50.825Z,62
2019-03-11T13:28:50.960Z,62
2019-03-11T13:30:50.038Z,61
2019-03-11T13:32:50.130Z,61
2019-03-11T13:34:50.450Z,62.6
2019-03-11T13:36:50.572Z,61.7
2019-03-11T13:38:50.625Z,63.1
2019-03-11T13:40:50.729Z,65.0
2019-03-11T13:42:50.983Z,65.0
2019-03-11T13:44:50.132Z,64.6
2019-03-11T13:46:50.317Z,64.3
2019-03-11T13:48:50.462Z,66.0
2019-03-11T13:50:50.645Z,66.0
2019-03-11T13:52:50.799Z,66.3
2019-03-11T13:54:50.928Z,66.3
2019-03-11T13:56:50.008Z,66.9
2019-03-11T13:58:50.156Z,67.8
2019-03-11T14:00:57.866Z,68.9
2019-03-11T14:02:49.992Z,68.5
2019-03-11T14:04:50.471Z,67.5
2019-03-11T14:06:50.625Z,67.9
2019-03-11T14:08:50.924Z,68.6
2019-03-11T14:10:49.979Z,68.7
2019-03-11T14:12:50.085Z,67.9
2019-03-11T14:14:50.194Z,68.3
2019-03-11T14:16:50.774Z,70.5
2019-03-11T14:18:50.089Z,71.9
2019-03-11T14:20:50.388Z,72.7
2019-03-11T14:22:50.576Z,75.1
2019-03-11T14:24:50.771Z,75.6
2019-03-11T14:26:50.310Z,75.4
2019-03-11T14:28:50.545Z,75.2
2019-03-11T14:30:51.657Z,74.4
2019-03-11T14:32:50.919Z,75.6
2019-03-11T14:34:50.593Z,74.5
2019-03-11T14:36:50.846Z,75.3
2019-03-11T14:38:50.057Z,76.1
2019-03-11T14:40:50.283Z,78.5
2019-03-11T14:42:50.597Z,78.9
2019-03-11T14:44:50.846Z,80.1
2019-03-11T14:46:50.344Z,80.3
2019-03-11T14:48:50.624Z,81.8
2019-03-11T14:50:50.910Z,81.8
2019-03-11T14:52:50.278Z,82.2
2019-03-11T14:54:50.541Z,81.4
2019-03-11T14:56:50.944Z,80.8
2019-03-11T14:58:50.219Z,81.1
2019-03-11T15:00:50.465Z,78.9
2019-03-11T15:02:50.729Z,78.4
2019-03-11T15:04:52.809Z,78.8
2019-03-11T15:06:50.226Z,77.8
2019-03-11T15:08:50.404Z,78.0
2019-03-11T15:10:50.709Z,76.4
2019-03-11T15:12:50.339Z,75.0
2019-03-11T15:14:50.688Z,75.3
2019-03-11T15:16:50.033Z,74.9
2019-03-11T15:18:50.198Z,75.0
2019-03-11T15:20:50.688Z,76.1
2019-03-11T15:22:50.929Z,78.9
2019-03-11T15:24:50.184Z,77.8
2019-03-11T15:26:50.615Z,77.4
2019-03-11T15:28:50.801Z,76.3
2019-03-11T15:30:50.132Z,76.9
2019-03-11T15:32:50.430Z,76.6
2019-03-11T15:34:49.987Z,77.3
2019-03-11T15:36:50.334Z,78.7
2019-03-11T15:38:50.531Z,78.1
2019-03-11T15:40:50.704Z,77.5
2019-03-11T15:42:50.015Z,77.7
2019-03-11T15:44:50.297Z,77.4
2019-03-11T15:46:50.147Z,77.4
2019-03-11T15:48:50.375Z,77.3
2019-03-11T15:50:50.598Z,77.7
2019-03-11T15:52:50.786Z,77.6
2019-03-11T15:54:50.176Z,77.1
2019-03-11T15:56:50.742Z,77.1
2019-03-11T15:58:50.200Z,76.1
2019-03-11T16:00:50.792Z,77.1
2019-03-11T16:02:50.062Z,76.6
2019-03-11T16:04:49.983Z,76.9
2019-03-11T16:06:50.363Z,76.0
2019-03-11T16:08:50.714Z,76.3
2019-03-11T16:10:50.900Z,74.3
2019-03-11T16:12:50.111Z,74.6
2019-03-11T16:14:50.626Z,74.0
2019-03-11T16:16:50.581Z,74.2
2019-03-11T16:18:50.931Z,74.9
2019-03-11T16:20:50.388Z,75.4
2019-03-11T16:22:50.855Z,76.1
2019-03-11T16:24:50.287Z,78.4
2019-03-11T16:26:50.837Z,80.7
2019-03-11T16:28:50.066Z,85.1
2019-03-11T16:30:50.767Z,90.5
2019-03-11T16:33:01.858Z,94.4
2019-03-11T16:34:50.354Z,97.2
2019-03-11T16:36:50.681Z,98.1
2019-03-11T16:38:49.936Z,99.5
2019-03-11T16:40:50.251Z,100.0
2019-03-11T16:42:50.464Z,100.0
2019-03-11T16:44:50.613Z,100.0
2019-03-11T16:46:49.970Z,100.0
2019-03-11T16:48:50.272Z,100.0
2019-03-11T16:50:50.484Z,100.0
2019-03-11T16:52:50.675Z,100.0
2019-03-11T16:54:49.945Z,100.0
2019-03-11T16:56:50.416Z,100.0
2019-03-11T16:58:50.653Z,100.0
2019-03-11T17:00:50.888Z,100.0
2019-03-11T17:02:50.039Z,100.0
2019-03-11T17:04:50.615Z,100.0
2019-03-11T17:06:50.905Z,100.0
2019-03-11T17:08:50.108Z,100.0
2019-03-11T17:10:50.308Z,100.0
2019-03-11T17:12:50.608Z,100.0
2019-03-11T17:14:50.721Z,100.0
2019-03-11T17:16:51.535Z,100.0
2019-03-11T17:18:50.801Z,100.0
2019-03-11T17:20:49.974Z,100.0
2019-03-11T17:22:50.332Z,100.0
2019-03-11T17:24:50.511Z,100.0
2019-03-11T17:26:50.915Z,100.0
2019-03-11T17:28:50.086Z,100.0
2019-03-11T17:30:50.368Z,100.0
2019-03-11T17:32:50.689Z,100.0
2019-03-11T17:34:50.247Z,100.0
2019-03-11T17:36:50.615Z,100.0
2019-03-11T17:38:50.899Z,100.0
2019-03-11T17:40:50.211Z,100.0
2019-03-11T17:42:51.375Z,100.0
2019-03-11T17:44:50.614Z,100.0
2019-03-11T17:46:50.898Z,100.0
2019-03-11T17:48:50.151Z,100.0
2019-03-11T17:50:50.419Z,99.9
2019-03-11T17:52:50.686Z,100.0
2019-03-11T17:54:50.923Z,99.5
2019-03-11T17:56:50.370Z,99.5
2019-03-11T17:58:50.688Z,97.8
2019-03-11T18:00:56.542Z,97.6
2019-03-11T18:02:50.835Z,97.5
2019-03-11T18:04:50.476Z,98.0
2019-03-11T18:06:50.845Z,97.9
2019-03-11T18:08:49.950Z,97.6
2019-03-11T18:10:50.107Z,97.9
2019-03-11T18:12:50.334Z,97.9
2019-03-11T18:14:50.495Z,97.6
2019-03-11T18:16:50.900Z,97.8
2019-03-11T18:18:50.060Z,97.9
2019-03-11T18:20:50.284Z,98.3
2019-03-11T18:22:50.525Z,98.3
2019-03-11T18:24:50.783Z,98.8
2019-03-11T18:26:50.290Z,99.3
2019-03-11T18:28:50.586Z,99.7
2019-03-11T18:30:52.437Z,99.8
2019-03-11T18:32:50.828Z,99.8
2019-03-11T18:34:50.548Z,99.4
2019-03-11T18:36:50.153Z,99.3
2019-03-11T18:38:50.649Z,98.8
2019-03-11T18:40:51.111Z,98.5
2019-03-11T18:42:50.617Z,97.7
2019-03-11T18:44:51.116Z,97.3
2019-03-11T18:46:50.590Z,97.0
2019-03-11T18:48:50.871Z,96.6
2019-03-11T18:50:50.409Z,96.3
2019-03-11T18:52:50.741Z,95.4
2019-03-11T18:54:50.151Z,95.1
2019-03-11T18:56:50.652Z,94.1
2019-03-11T18:58:50.260Z,94.0
2019-03-11T19:00:50.677Z,93.9
2019-03-11T19:02:50.224Z,93.9
2019-03-11T19:04:50.749Z,93.2
2019-03-11T19:06:50.335Z,93.0
2019-03-11T19:08:50.741Z,92.8
2019-03-11T19:10:50.253Z,92.2
2019-03-11T19:12:50.782Z,91.7
2019-03-11T19:14:50.186Z,92.0
2019-03-11T19:16:50.617Z,91.8
2019-03-11T19:18:50.878Z,91.6
2019-03-11T19:20:50.268Z,91.8
2019-03-11T19:22:50.788Z,91.6
2019-03-11T19:24:51.017Z,91.5
2019-03-11T19:26:50.541Z,91.2
2019-03-11T19:28:50.845Z,91.5
2019-03-11T19:30:50.285Z,91.8
2019-03-11T19:32:50.665Z,91.9
2019-03-11T19:34:50.518Z,91.6
2019-03-11T19:36:51.028Z,91.8
2019-03-11T19:38:50.317Z,91.4
2019-03-11T19:40:50.660Z,91.2
2019-03-11T19:42:51.063Z,91.3
2019-03-11T19:44:50.363Z,90.8
2019-03-11T19:46:51.018Z,90.8
2019-03-11T19:48:50.561Z,91.0
2019-03-11T19:50:50.986Z,90.2
2019-03-11T19:53:00.273Z,90.0
2019-03-11T19:54:50.707Z,89.1
2019-03-11T19:56:50.312Z,88.4
2019-03-11T19:58:50.737Z,88.1
2019-03-11T20:00:50.147Z,87.9
2019-03-11T20:02:50.640Z,87.5
2019-03-11T20:04:50.364Z,86.9
2019-03-11T20:06:50.789Z,86.2
2019-03-11T20:08:50.206Z,85.9
2019-03-11T20:10:50.600Z,85.8
2019-03-11T20:12:51.163Z,85.4
2019-03-11T20:14:50.640Z,84.9
2019-03-11T20:16:50.358Z,84.6
2019-03-11T20:18:50.725Z,83.5
2019-03-11T20:20:51.642Z,80.2
2019-03-11T20:22:51.132Z,80.2
2019-03-11T20:24:50.438Z,79.9
2019-03-11T20:26:50.940Z,78.9
2019-03-11T20:28:50.241Z,78.3
2019-03-11T20:30:50.615Z,78.3
2019-03-11T20:32:51.107Z,78.7
2019-03-11T20:34:50.856Z,76.8
2019-03-11T20:36:50.603Z,76.7
2019-03-11T20:38:51.012Z,76.6
2019-03-11T20:40:50.442Z,76.5
2019-03-11T20:42:51.005Z,76.4
2019-03-11T20:44:50.477Z,76.5
2019-03-11T20:46:51.235Z,76.6
2019-03-11T20:48:50.599Z,77.0
2019-03-11T20:50:50.880Z,76.9
2019-03-11T20:52:50.479Z,77.1
2019-03-11T20:54:50.873Z,77.1
2019-03-11T20:56:50.477Z,77.1
2019-03-11T20:58:50.870Z,76.9
2019-03-11T21:00:50.218Z,76.8
2019-03-11T21:02:50.957Z,76.5
2019-03-11T21:04:50.904Z,76.8
2019-03-11T21:06:50.573Z,77.5
2019-03-11T21:08:51.112Z,79.0
2019-03-11T21:10:50.529Z,80.5
2019-03-11T21:12:51.004Z,82.6
2019-03-11T21:14:50.614Z,84.0
2019-03-11T21:16:50.178Z,85.3
2019-03-11T21:18:50.544Z,85.4
2019-03-11T21:21:05.901Z,86.3
2019-03-11T21:22:51.216Z,89.2
2019-03-11T21:25:01.071Z,89.9
2019-03-11T21:26:50.562Z,91.2
2019-03-11T21:28:50.986Z,91.7
2019-03-11T21:30:50.626Z,92.1
2019-03-11T21:32:51.189Z,92.0
2019-03-11T21:34:51.494Z,92.0
2019-03-11T21:36:52.415Z,92.0
2019-03-11T21:38:50.822Z,92.0
2019-03-11T21:40:50.705Z,91.4
2019-03-11T21:42:51.857Z,91.6
2019-03-11T21:44:50.272Z,91.6
2019-03-11T21:46:50.825Z,93.4
2019-03-11T21:48:50.279Z,93.5
2019-03-11T21:50:50.764Z,94.8
2019-03-11T21:52:50.511Z,95.8
2019-03-11T21:54:51.009Z,95.6
2019-03-11T21:56:50.528Z,96.5
2019-03-11T21:58:51.524Z,95.4
2019-03-11T22:00:50.744Z,95.5
2019-03-11T22:02:50.038Z,95.7
2019-03-11T22:04:50.664Z,94.7
2019-03-11T22:06:50.031Z,93.8
2019-03-11T22:08:50.251Z,93.3
2019-03-11T22:10:50.424Z,93.3
2019-03-11T22:12:50.704Z,93.0
2019-03-11T22:14:51.018Z,90.5
2019-03-11T22:16:50.506Z,90.6
2019-03-11T22:18:50.932Z,88.6
2019-03-11T22:20:50.131Z,88.5
2019-03-11T22:22:50.460Z,88.7
2019-03-11T22:24:50.658Z,87.7
2019-03-11T22:26:50.102Z,87.3
2019-03-11T22:28:50.291Z,87.7
2019-03-11T22:30:50.527Z,88.2
2019-03-11T22:32:50.762Z,88.1
2019-03-11T22:34:50.456Z,87.9
2019-03-11T22:36:50.792Z,87.7
2019-03-11T22:38:50.143Z,89.1
2019-03-11T22:40:50.515Z,89.4
2019-03-11T22:42:50.921Z,89.6
2019-03-11T22:44:50.062Z,89.5
2019-03-11T22:46:50.471Z,90.2
2019-03-11T22:48:50.689Z,90.5
2019-03-11T22:50:50.044Z,91.5
2019-03-11T22:52:50.384Z,91.4
2019-03-11T22:54:50.685Z,91.3
2019-03-11T22:56:50.116Z,91.3
2019-03-11T22:58:50.340Z,91.9
2019-03-11T23:00:50.642Z,91.4
2019-03-11T23:02:50.943Z,91.4
2019-03-11T23:04:50.707Z,91.6
2019-03-11T23:06:50.041Z,91.6
2019-03-11T23:08:50.305Z,91.7
2019-03-11T23:10:50.588Z,91.8
2019-03-11T23:12:50.805Z,91.5
2019-03-11T23:14:49.985Z,91.5
2019-03-11T23:16:50.357Z,91.8
2019-03-11T23:18:50.519Z,91.4
2019-03-11T23:20:50.659Z,91.4
2019-03-11T23:22:50.811Z,91.4
2019-03-11T23:24:50.066Z,91.5
2019-03-11T23:26:50.509Z,91.2
2019-03-11T23:28:50.779Z,90.8
2019-03-11T23:30:49.994Z,89.9
2019-03-11T23:32:50.227Z,88.8
2019-03-11T23:34:50.748Z,88.6
2019-03-11T23:36:50.076Z,89.0
2019-03-11T23:38:50.444Z,88.6
2019-03-11T23:40:50.618Z,87.6
2019-03-11T23:42:50.796Z,87.4
2019-03-11T23:44:49.973Z,86.9
2019-03-11T23:46:50.325Z,87.0
2019-03-11T23:48:50.582Z,87.0
2019-03-11T23:50:50.833Z,86.9
2019-03-11T23:52:50.141Z,86.0
2019-03-11T23:54:50.391Z,86.4
2019-03-11T23:56:50.749Z,86.2
2019-03-11T23:58:49.982Z,86.1
